Time,TemperatureF,DewpointF,PressureIn,WindDirection,WindDirectionDegrees,WindSpeedMPH,WindSpeedGustMPH,Humidity,HourlyPrecipIn,Conditions,Clouds,dailyrainin,SoftwareType,DateUTC
2013-04-01 00:02:00,45.8,33.9,29.90,South,181,6.0,8.0,63,0.00,,,0.00,Wunderground PWS Mod,2013-04-01 06:02:00,
2013-04-01 00:08:00,46.8,32.4,29.90,SSE,158,6.0,12.0,57,0.00,,,0.00,Wunderground PWS Mod,2013-04-01 06:08:00,
2013-04-01 00:13:00,47.6,31.8,29.90,SSE,158,6.0,9.0,54,0.00,,,0.00,Wunderground PWS Mod,2013-04-01 06:13:00,
2013-04-01 00:20:00,48.0,32.1,29.84,SE,133,2.0,5.0,54,0.00,,,0.00,Wunderground PWS Mod,2013-04-01 06:20:00,
2013-04-01 00:26:00,48.6,29.3,29.84,SSE,148,1.0,3.0,47,0.00,,,0.00,Wunderground PWS Mod,2013-04-01 06:26:00,
2013-04-01 00:32:00,49.2,29.8,29.82,East,94,2.0,2.0,47,0.00,,,0.00,Wunderground PWS Mod,2013-04-01 06:32:00,
2013-04-01 00:38:00,48.9,29.0,29.82,East,80,2.0,2.0,46,0.00,,,0.00,Wunderground PWS Mod,2013-04-01 06:38:00,
2013-04-01 00:43:00,48.9,29.0,29.82,ENE,68,2.0,3.0,46,0.00,,,0.00,Wunderground PWS Mod,2013-04-01 06:43:00,
2013-04-01 00:48:00,48.3,27.9,29.82,East,82,1.0,2.0,45,0.00,,,0.00,Wunderground PWS Mod,2013-04-01 06:48:00,
2013-04-01 00:54:00,48.0,27.6,29.82,ENE,62,1.0,2.0,45,0.00,,,0.00,Wunderground PWS Mod,2013-04-01 06:54:00,
2013-04-01 00:59:00,47.7,27.9,29.82,ENE,62,1.0,1.0,46,0.00,,,0.00,Wunderground PWS Mod,2013-04-01 06:59:00,
2013-04-01 01:05:00,47.3,28.1,29.83,ENE,60,2.0,2.0,47,0.00,,,0.00,Wunderground PWS Mod,2013-04-01 07:05:00,
2013-04-01 01:11:00,47.1,28.4,29.83,ENE,60,2.0,2.0,48,0.00,,,0.00,Wunderground PWS Mod,2013-04-01 07:11:00,
2013-04-01 01:16:00,47.0,28.3,29.85,NE,56,2.0,2.0,48,0.00,,,0.00,Wunderground PWS Mod,2013-04-01 07:16:00,
2013-04-01 01:22:00,47.0,28.3,29.85,NE,51,2.0,2.0,48,0.00,,,0.00,Wunderground PWS Mod,2013-04-01 07:22:00,
2013-04-01 01:28:00,47.0,27.8,29.85,NE,45,1.0,1.0,47,0.00,,,0.00,Wunderground PWS Mod,2013-04-01 07:28:00,
2013-04-01 01:33:00,47.1,28.4,29.88,South,191,11.0,11.0,48,0.00,,,0.00,Wunderground PWS Mod,2013-04-01 07:33:00,
2013-04-01 01:39:00,47.3,30.1,29.88,SW,236,6.0,6.0,51,0.00,,,0.00,Wunderground PWS Mod,2013-04-01 07:39:00,
2013-04-01 01:45:00,47.0,33.0,29.90,SW,228,10.0,10.0,58,0.00,,,0.00,Wunderground PWS Mod,2013-04-01 07:45:00,
2013-04-01 01:52:00,46.1,33.4,29.90,WSW,255,10.0,11.0,61,0.00,,,0.00,Wunderground PWS Mod,2013-04-01 07:52:00,
2013-04-01 01:58:00,46.0,33.7,29.90,SW,225,9.0,15.0,62,0.00,,,0.00,Wunderground PWS Mod,2013-04-01 07:58:00,
2013-04-01 02:03:00,44.8,35.2,29.92,WSW,257,4.0,8.0,69,0.00,,,0.00,Wunderground PWS Mod,2013-04-01 08:03:00,
2013-04-01 02:08:00,44.5,34.6,29.92,West,273,1.0,5.0,68,0.00,,,0.00,Wunderground PWS Mod,2013-04-01 08:08:00,
2013-04-01 02:13:00,44.5,34.2,29.92,West,262,0.0,2.0,67,0.00,,,0.00,Wunderground PWS Mod,2013-04-01 08:13:00,
2013-04-01 02:19:00,44.6,34.3,29.89,West,266,1.0,1.0,67,0.00,,,0.00,Wunderground PWS Mod,2013-04-01 08:19:00,
2013-04-01 02:24:00,44.6,34.3,29.89,NNE,31,1.0,2.0,67,0.00,,,0.00,Wunderground PWS Mod,2013-04-01 08:24:00,
2013-04-01 02:29:00,44.5,33.8,29.89,NE,47,3.0,3.0,66,0.00,,,0.00,Wunderground PWS Mod,2013-04-01 08:29:00,
2013-04-01 02:34:00,44.6,34.3,29.89,NNE,27,4.0,8.0,67,0.00,,,0.00,Wunderground PWS Mod,2013-04-01 08:34:00,
2013-04-01 02:39:00,44.6,34.3,29.89,NE,45,5.0,7.0,67,0.00,,,0.00,Wunderground PWS Mod,2013-04-01 08:39:00,
2013-04-01 02:44:00,44.6,35.1,29.89,East,101,3.0,5.0,69,0.00,,,0.00,Wunderground PWS Mod,2013-04-01 08:44:00,
2013-04-01 02:50:00,44.3,34.8,29.89,NE,50,2.0,3.0,69,0.00,,,0.00,Wunderground PWS Mod,2013-04-01 08:50:00,
2013-04-01 02:55:00,44.1,34.9,29.89,NE,40,3.0,3.0,70,0.00,,,0.00,Wunderground PWS Mod,2013-04-01 08:55:00,
2013-04-01 03:00:00,43.9,34.7,29.89,NE,34,4.0,5.0,70,0.00,,,0.00,Wunderground PWS Mod,2013-04-01 09:00:00,
2013-04-01 03:05:00,44.1,34.9,29.89,NE,56,4.0,5.0,70,0.00,,,0.00,Wunderground PWS Mod,2013-04-01 09:05:00,
2013-04-01 03:10:00,44.1,34.6,29.89,NE,51,5.0,5.0,69,0.00,,,0.00,Wunderground PWS Mod,2013-04-01 09:10:00,
2013-04-01 03:15:00,44.1,34.6,29.90,NE,40,5.0,6.0,69,0.00,,,0.00,Wunderground PWS Mod,2013-04-01 09:15:00,
2013-04-01 03:20:00,44.1,34.6,29.90,ENE,60,3.0,4.0,69,0.00,,,0.00,Wunderground PWS Mod,2013-04-01 09:20:00,
2013-04-01 03:25:00,44.2,34.3,29.90,NE,44,3.0,3.0,68,0.00,,,0.00,Wunderground PWS Mod,2013-04-01 09:25:00,
2013-04-01 03:30:00,44.5,34.2,29.89,NE,37,4.0,9.0,67,0.00,,,0.00,Wunderground PWS Mod,2013-04-01 09:30:00,
2013-04-01 03:36:00,44.6,33.9,29.89,NE,56,6.0,6.0,66,0.00,,,0.00,Wunderground PWS Mod,2013-04-01 09:36:00,
2013-04-01 03:41:00,44.6,33.6,29.89,NNE,17,7.0,7.0,65,0.00,,,0.00,Wunderground PWS Mod,2013-04-01 09:41:00,
2013-04-01 03:46:00,44.3,33.7,29.87,ENE,57,4.0,5.0,66,0.00,,,0.00,Wunderground PWS Mod,2013-04-01 09:46:00,
2013-04-01 03:51:00,43.9,33.3,29.87,East,89,5.0,5.0,66,0.00,,,0.00,Wunderground PWS Mod,2013-04-01 09:51:00,
2013-04-01 03:56:00,43.9,33.3,29.87,NNE,31,5.0,5.0,66,0.00,,,0.00,Wunderground PWS Mod,2013-04-01 09:56:00,
2013-04-01 04:02:00,43.3,32.7,29.88,NNE,32,4.0,5.0,66,0.00,,,0.00,Wunderground PWS Mod,2013-04-01 10:02:00,
2013-04-01 04:07:00,42.9,32.3,29.88,NE,50,5.0,5.0,66,0.00,,,0.00,Wunderground PWS Mod,2013-04-01 10:07:00,
2013-04-01 04:12:00,42.5,32.3,29.88,ENE,77,2.0,3.0,67,0.00,,,0.00,Wunderground PWS Mod,2013-04-01 10:12:00,
2013-04-01 04:17:00,42.1,32.3,29.91,ENE,65,2.0,3.0,68,0.00,,,0.00,Wunderground PWS Mod,2013-04-01 10:17:00,
2013-04-01 04:22:00,41.6,32.2,29.91,ENE,75,3.0,4.0,69,0.00,,,0.00,Wunderground PWS Mod,2013-04-01 10:22:00,
2013-04-01 04:27:00,41.3,31.9,29.91,ENE,68,2.0,4.0,69,0.00,,,0.00,Wunderground PWS Mod,2013-04-01 10:27:00,
2013-04-01 04:32:00,41.2,31.8,29.90,ENE,73,1.0,3.0,69,0.00,,,0.00,Wunderground PWS Mod,2013-04-01 10:32:00,
2013-04-01 04:37:00,40.8,31.8,29.90,ENE,67,2.0,3.0,70,0.00,,,0.00,Wunderground PWS Mod,2013-04-01 10:37:00,
2013-04-01 04:42:00,40.3,31.6,29.90,East,79,2.0,4.0,71,0.00,,,0.00,Wunderground PWS Mod,2013-04-01 10:42:00,
2013-04-01 04:47:00,40.5,31.8,29.91,ENE,75,2.0,3.0,71,0.00,,,0.00,Wunderground PWS Mod,2013-04-01 10:47:00,
2013-04-01 04:52:00,40.6,31.9,29.91,East,82,2.0,3.0,71,0.00,,,0.00,Wunderground PWS Mod,2013-04-01 10:52:00,
2013-04-01 04:57:00,40.5,31.5,29.91,East,82,2.0,4.0,70,0.00,,,0.00,Wunderground PWS Mod,2013-04-01 10:57:00,
2013-04-01 05:02:00,40.3,31.6,29.91,ENE,63,2.0,4.0,71,0.00,,,0.00,Wunderground PWS Mod,2013-04-01 11:02:00,
2013-04-01 05:07:00,40.3,31.3,29.91,ENE,68,2.0,3.0,70,0.00,,,0.00,Wunderground PWS Mod,2013-04-01 11:07:00,
2013-04-01 05:12:00,40.3,31.3,29.91,ENE,73,1.0,3.0,70,0.00,,,0.00,Wunderground PWS Mod,2013-04-01 11:12:00,
2013-04-01 05:17:00,40.1,31.4,29.89,ENE,63,3.0,4.0,71,0.00,,,0.00,Wunderground PWS Mod,2013-04-01 11:17:00,
2013-04-01 05:22:00,39.8,31.5,29.89,ENE,59,2.0,3.0,72,0.00,,,0.00,Wunderground PWS Mod,2013-04-01 11:22:00,
2013-04-01 05:27:00,39.9,31.6,29.89,NE,56,2.0,5.0,72,0.00,,,0.00,Wunderground PWS Mod,2013-04-01 11:27:00,
2013-04-01 05:32:00,39.9,31.6,29.89,NE,38,4.0,5.0,72,0.00,,,0.00,Wunderground PWS Mod,2013-04-01 11:32:00,
2013-04-01 05:37:00,39.6,31.3,29.89,East,86,1.0,3.0,72,0.00,,,0.00,Wunderground PWS Mod,2013-04-01 11:37:00,
2013-04-01 05:42:00,39.3,31.0,29.89,East,79,1.0,4.0,72,0.00,,,0.00,Wunderground PWS Mod,2013-04-01 11:42:00,
2013-04-01 05:48:00,38.9,31.0,29.91,ENE,72,2.0,3.0,73,0.00,,,0.00,Wunderground PWS Mod,2013-04-01 11:48:00,
2013-04-01 05:53:00,38.9,31.0,29.91,East,90,2.0,2.0,73,0.00,,,0.00,Wunderground PWS Mod,2013-04-01 11:53:00,
2013-04-01 05:54:00,38.9,31.0,29.91,East,86,2.0,3.0,73,0.00,,,0.00,Wunderground PWS Mod,2013-04-01 11:54:00,
2013-04-01 05:59:00,39.2,31.3,29.91,ENE,68,2.0,4.0,73,0.00,,,0.00,Wunderground PWS Mod,2013-04-01 11:59:00,
2013-04-01 06:04:00,39.8,31.8,29.91,ENE,75,2.0,3.0,73,0.00,,,0.00,Wunderground PWS Mod,2013-04-01 12:04:00,
2013-04-01 06:09:00,40.1,31.4,29.91,ENE,73,1.0,4.0,71,0.00,,,0.00,Wunderground PWS Mod,2013-04-01 12:09:00,
2013-04-01 06:14:00,39.9,31.3,29.91,East,96,2.0,3.0,71,0.00,,,0.00,Wunderground PWS Mod,2013-04-01 12:14:00,
2013-04-01 06:19:00,39.6,31.0,29.92,East,80,2.0,3.0,71,0.00,,,0.00,Wunderground PWS Mod,2013-04-01 12:19:00,
2013-04-01 06:24:00,39.2,30.6,29.92,ESE,103,2.0,2.0,71,0.00,,,0.00,Wunderground PWS Mod,2013-04-01 12:24:00,
2013-04-01 06:29:00,38.9,30.6,29.92,East,83,2.0,3.0,72,0.00,,,0.00,Wunderground PWS Mod,2013-04-01 12:29:00,
2013-04-01 06:34:00,39.1,30.8,29.93,ENE,66,1.0,5.0,72,0.00,,,0.00,Wunderground PWS Mod,2013-04-01 12:34:00,
2013-04-01 06:39:00,39.2,30.9,29.93,East,87,3.0,3.0,72,0.00,,,0.00,Wunderground PWS Mod,2013-04-01 12:39:00,
2013-04-01 06:44:00,39.3,31.0,29.94,ENE,62,3.0,3.0,72,0.00,,,0.00,Wunderground PWS Mod,2013-04-01 12:44:00,
2013-04-01 06:50:00,39.5,31.2,29.94,ENE,72,1.0,3.0,72,0.00,,,0.00,Wunderground PWS Mod,2013-04-01 12:50:00,
2013-04-01 06:54:00,39.5,30.9,29.94,ENE,67,2.0,3.0,71,0.00,,,0.00,Wunderground PWS Mod,2013-04-01 12:54:00,
2013-04-01 06:59:00,39.5,30.9,29.92,NE,56,0.0,2.0,71,0.00,,,0.00,Wunderground PWS Mod,2013-04-01 12:59:00,
2013-04-01 07:04:00,39.3,31.0,29.92,ENE,61,2.0,4.0,72,0.00,,,0.00,Wunderground PWS Mod,2013-04-01 13:04:00,
2013-04-01 07:09:00,39.2,30.9,29.92,East,83,2.0,3.0,72,0.00,,,0.00,Wunderground PWS Mod,2013-04-01 13:09:00,
2013-04-01 07:15:00,39.2,30.9,30.00,ENE,69,1.0,2.0,72,0.00,,,0.00,Wunderground PWS Mod,2013-04-01 13:15:00,
2013-04-01 07:19:00,39.5,31.2,30.00,ENE,75,1.0,3.0,72,0.00,,,0.00,Wunderground PWS Mod,2013-04-01 13:19:00,
2013-04-01 07:24:00,40.3,31.3,30.00,East,84,0.0,3.0,70,0.00,,,0.00,Wunderground PWS Mod,2013-04-01 13:24:00,
2013-04-01 07:29:00,40.6,31.2,29.98,East,81,2.0,3.0,69,0.00,,,0.00,Wunderground PWS Mod,2013-04-01 13:29:00,
2013-04-01 07:35:00,40.5,31.5,29.98,East,82,1.0,1.0,70,0.00,,,0.00,Wunderground PWS Mod,2013-04-01 13:35:00,
2013-04-01 07:40:00,41.2,31.8,29.98,East,81,1.0,2.0,69,0.00,,,0.00,Wunderground PWS Mod,2013-04-01 13:40:00,
2013-04-01 07:45:00,42.1,32.3,29.97,East,81,1.0,2.0,68,0.00,,,0.00,Wunderground PWS Mod,2013-04-01 13:45:00,
2013-04-01 07:50:00,42.9,32.3,29.97,ENE,75,1.0,1.0,66,0.00,,,0.00,Wunderground PWS Mod,2013-04-01 13:50:00,
2013-04-01 07:55:00,43.2,32.2,29.97,ENE,75,1.0,1.0,65,0.00,,,0.00,Wunderground PWS Mod,2013-04-01 13:55:00,
2013-04-01 08:00:00,43.8,32.0,29.96,ESE,123,1.0,2.0,63,0.00,,,0.00,Wunderground PWS Mod,2013-04-01 14:00:00,
2013-04-01 08:05:00,44.8,32.2,29.96,SE,131,2.0,2.0,61,0.00,,,0.00,Wunderground PWS Mod,2013-04-01 14:05:00,
2013-04-01 08:40:00,46.2,32.2,29.98,SSE,158,2.0,4.0,58,0.00,,,0.00,Wunderground PWS Mod,2013-04-01 14:40:00,
2013-04-01 08:45:00,48.2,32.3,29.96,SSE,159,3.0,4.0,54,0.00,,,0.00,Wunderground PWS Mod,2013-04-01 14:45:00,
2013-04-01 08:50:00,48.3,32.4,29.96,SSE,163,3.0,3.0,54,0.00,,,0.00,Wunderground PWS Mod,2013-04-01 14:50:00,
2013-04-01 08:55:00,48.8,32.9,29.96,SSE,147,1.0,3.0,54,0.00,,,0.00,Wunderground PWS Mod,2013-04-01 14:55:00,
2013-04-01 09:00:00,49.4,32.5,29.96,SSE,165,4.0,6.0,52,0.00,,,0.00,Wunderground PWS Mod,2013-04-01 15:00:00,
2013-04-01 09:05:00,49.9,31.5,29.96,SE,140,3.0,4.0,49,0.00,,,0.00,Wunderground PWS Mod,2013-04-01 15:05:00,
2013-04-01 09:10:00,50.8,31.3,29.96,South,171,5.0,5.0,47,0.00,,,0.00,Wunderground PWS Mod,2013-04-01 15:10:00,
2013-04-01 09:15:00,51.0,30.4,29.96,South,179,4.0,7.0,45,0.00,,,0.00,Wunderground PWS Mod,2013-04-01 15:15:00,
2013-04-01 09:20:00,50.7,31.2,29.96,South,171,6.0,6.0,47,0.00,,,0.00,Wunderground PWS Mod,2013-04-01 15:20:00,
2013-04-01 09:28:00,51.7,31.6,29.96,SSE,152,5.0,5.0,46,0.00,,,0.00,Wunderground PWS Mod,2013-04-01 15:28:00,
2013-04-01 09:33:00,51.0,31.5,29.96,SE,135,3.0,6.0,47,0.00,,,0.00,Wunderground PWS Mod,2013-04-01 15:33:00,
2013-04-01 09:38:00,52.2,30.4,29.95,SSE,166,9.0,11.0,43,0.00,,,0.00,Wunderground PWS Mod,2013-04-01 15:38:00,
2013-04-01 09:44:00,53.1,30.0,29.95,SSE,152,9.0,9.0,41,0.00,,,0.00,Wunderground PWS Mod,2013-04-01 15:44:00,
2013-04-01 09:49:00,53.1,30.0,29.95,SSE,158,6.0,9.0,41,0.00,,,0.00,Wunderground PWS Mod,2013-04-01 15:49:00,
2013-04-01 09:54:00,53.8,29.4,29.94,SW,217,5.0,12.0,39,0.00,,,0.00,Wunderground PWS Mod,2013-04-01 15:54:00,
2013-04-01 10:11:00,55.0,29.2,29.93,South,180,5.0,9.0,37,0.00,,,0.00,Wunderground PWS Mod,2013-04-01 16:11:00,
2013-04-01 10:58:00,55.9,24.9,29.92,SSE,168,7.0,9.0,30,0.00,,,0.00,Wunderground PWS Mod,2013-04-01 16:58:00,
2013-04-01 11:03:00,56.5,22.9,29.91,SW,214,5.0,13.0,27,0.00,,,0.00,Wunderground PWS Mod,2013-04-01 17:03:00,
2013-04-01 12:02:00,56.6,22.1,29.90,SSW,195,7.0,14.0,26,0.00,,,0.00,Wunderground PWS Mod,2013-04-01 18:02:00,
2013-04-01 12:07:00,58.0,21.4,29.90,WSW,240,7.0,13.0,24,0.00,,,0.00,Wunderground PWS Mod,2013-04-01 18:07:00,
2013-04-01 12:12:00,57.5,21.9,29.90,West,262,9.0,13.0,25,0.00,,,0.00,Wunderground PWS Mod,2013-04-01 18:12:00,
2013-04-01 12:17:00,58.3,21.6,29.85,South,176,4.0,18.0,24,0.00,,,0.00,Wunderground PWS Mod,2013-04-01 18:17:00,
2013-04-01 12:22:00,58.4,20.7,29.85,SE,124,9.0,17.0,23,0.00,,,0.00,Wunderground PWS Mod,2013-04-01 18:22:00,
2013-04-01 12:24:00,57.6,22.0,29.85,SW,225,5.0,9.0,25,0.00,,,0.00,Wunderground PWS Mod,2013-04-01 18:24:00,
2013-04-01 12:27:00,57.2,21.6,29.85,South,175,5.0,17.0,25,0.00,,,0.00,Wunderground PWS Mod,2013-04-01 18:27:00,
2013-04-01 12:34:00,57.5,21.9,29.85,SW,214,3.0,15.0,25,0.00,,,0.00,Wunderground PWS Mod,2013-04-01 18:34:00,
2013-04-01 12:39:00,57.0,21.5,29.85,SE,145,4.0,12.0,25,0.00,,,0.00,Wunderground PWS Mod,2013-04-01 18:39:00,
2013-04-01 12:44:00,58.3,22.6,29.85,SSW,204,4.0,14.0,25,0.00,,,0.00,Wunderground PWS Mod,2013-04-01 18:44:00,
2013-04-01 12:50:00,58.7,22.0,29.83,SSW,192,9.0,9.0,24,0.00,,,0.00,Wunderground PWS Mod,2013-04-01 18:50:00,
2013-04-01 12:55:00,59.0,21.2,29.83,SSE,167,6.0,8.0,23,0.00,,,0.00,Wunderground PWS Mod,2013-04-01 18:55:00,
2013-04-01 13:00:00,59.0,17.9,29.83,SW,224,4.0,8.0,20,0.00,,,0.00,Wunderground PWS Mod,2013-04-01 19:00:00,
2013-04-01 13:05:00,59.2,18.1,29.83,SW,226,5.0,8.0,20,0.00,,,0.00,Wunderground PWS Mod,2013-04-01 19:05:00,
2013-04-01 13:10:00,58.9,19.0,29.83,SW,235,5.0,16.0,21,0.00,,,0.00,Wunderground PWS Mod,2013-04-01 19:10:00,
2013-04-01 13:15:00,59.6,20.7,29.83,South,184,10.0,10.0,22,0.00,,,0.00,Wunderground PWS Mod,2013-04-01 19:15:00,
2013-04-01 13:20:00,60.1,20.0,29.83,SSW,198,4.0,8.0,21,0.00,,,0.00,Wunderground PWS Mod,2013-04-01 19:20:00,
2013-04-01 13:25:00,59.6,17.2,29.83,South,174,15.0,15.0,19,0.00,,,0.00,Wunderground PWS Mod,2013-04-01 19:25:00,
2013-04-01 13:30:00,60.9,19.5,29.82,SSW,206,6.0,20.0,20,0.00,,,0.00,Wunderground PWS Mod,2013-04-01 19:30:00,
2013-04-01 13:35:00,59.9,19.8,29.82,SSW,200,9.0,12.0,21,0.00,,,0.00,Wunderground PWS Mod,2013-04-01 19:35:00,
2013-04-01 13:40:00,61.3,16.1,29.82,South,184,10.0,12.0,17,0.00,,,0.00,Wunderground PWS Mod,2013-04-01 19:40:00,
2013-04-01 13:47:00,61.3,18.6,29.81,SE,134,6.0,9.0,19,0.00,,,0.00,Wunderground PWS Mod,2013-04-01 19:47:00,
2013-04-01 13:52:00,61.2,17.3,29.81,South,176,5.0,12.0,18,0.00,,,0.00,Wunderground PWS Mod,2013-04-01 19:52:00,
2013-04-01 13:57:00,61.6,18.9,29.81,SW,228,8.0,13.0,19,0.00,,,0.00,Wunderground PWS Mod,2013-04-01 19:57:00,
2013-04-01 14:02:00,61.2,17.3,29.80,SSE,157,4.0,14.0,18,0.00,,,0.00,Wunderground PWS Mod,2013-04-01 20:02:00,
2013-04-01 14:04:00,61.5,16.2,29.80,SW,225,7.0,14.0,17,0.00,,,0.00,Wunderground PWS Mod,2013-04-01 20:04:00,
2013-04-01 14:07:00,62.1,13.8,29.80,West,269,10.0,13.0,15,0.00,,,0.00,Wunderground PWS Mod,2013-04-01 20:07:00,
2013-04-01 14:12:00,61.3,16.1,29.80,SSW,212,6.0,14.0,17,0.00,,,0.00,Wunderground PWS Mod,2013-04-01 20:12:00,
2013-04-01 14:17:00,59.6,14.7,29.82,West,264,15.0,15.0,17,0.00,,,0.00,Wunderground PWS Mod,2013-04-01 20:17:00,
2013-04-01 14:22:00,60.4,15.3,29.82,WSW,241,14.0,20.0,17,0.00,,,0.00,Wunderground PWS Mod,2013-04-01 20:22:00,
2013-04-01 14:27:00,61.5,13.4,29.82,West,263,8.0,17.0,15,0.00,,,0.00,Wunderground PWS Mod,2013-04-01 20:27:00,
2013-04-01 14:32:00,61.5,13.4,29.80,SW,230,7.0,17.0,15,0.00,,,0.00,Wunderground PWS Mod,2013-04-01 20:32:00,
2013-04-01 14:34:00,61.5,11.8,29.80,SW,225,10.0,18.0,14,0.00,,,0.00,Wunderground PWS Mod,2013-04-01 20:34:00,
2013-04-01 14:37:00,61.6,13.4,29.80,WSW,238,11.0,16.0,15,0.00,,,0.00,Wunderground PWS Mod,2013-04-01 20:37:00,
2013-04-01 14:42:00,61.8,13.6,29.80,WSW,242,12.0,18.0,15,0.00,,,0.00,Wunderground PWS Mod,2013-04-01 20:42:00,
2013-04-01 14:47:00,61.8,16.5,29.79,SW,231,7.0,18.0,17,0.00,,,0.00,Wunderground PWS Mod,2013-04-01 20:47:00,
2013-04-01 14:52:00,61.6,16.3,29.79,SSE,160,5.0,12.0,17,0.00,,,0.00,Wunderground PWS Mod,2013-04-01 20:52:00,
2013-04-01 14:57:00,60.4,15.3,29.79,SW,231,15.0,17.0,17,0.00,,,0.00,Wunderground PWS Mod,2013-04-01 20:57:00,
2013-04-01 15:02:00,58.7,13.9,29.79,WSW,255,5.0,13.0,17,0.00,,,0.00,Wunderground PWS Mod,2013-04-01 21:02:00,
2013-04-01 15:07:00,58.9,15.4,29.79,South,188,6.0,10.0,18,0.00,,,0.00,Wunderground PWS Mod,2013-04-01 21:07:00,
2013-04-01 15:54:00,61.3,11.6,29.76,WSW,248,9.0,13.0,14,0.00,,,0.00,Wunderground PWS Mod,2013-04-01 21:54:00,
2013-04-01 15:59:00,61.0,11.4,29.76,WSW,252,11.0,13.0,14,0.00,,,0.00,Wunderground PWS Mod,2013-04-01 21:59:00,
2013-04-01 16:04:00,59.9,10.5,29.77,WSW,241,9.0,14.0,14,0.00,,,0.00,Wunderground PWS Mod,2013-04-01 22:04:00,
2013-04-01 16:09:00,60.4,10.9,29.77,SW,230,14.0,16.0,14,0.00,,,0.00,Wunderground PWS Mod,2013-04-01 22:09:00,
2013-04-01 16:14:00,61.6,10.2,29.77,SW,216,7.0,15.0,13,0.00,,,0.00,Wunderground PWS Mod,2013-04-01 22:14:00,